sensor_id;sensor_type;location;lat;lon;timestamp;P1;P2;P0
44871;PMS7003;30602;51.060;17.226;2023-03-23T00:01:28;58;47;30
44871;PMS7003;30602;51.060;17.226;2023-03-23T00:05:21;65;48;29
44871;PMS7003;30602;51.060;17.226;2023-03-23T00:09:09;59;46;29
44871;PMS7003;30602;51.060;17.226;2023-03-23T00:12:56;52;42;28
44871;PMS7003;30602;51.060;17.226;2023-03-23T00:16:30;57;46;30
44871;PMS7003;30602;51.060;17.226;2023-03-23T00:20:52;59;49;31
44871;PMS7003;30602;51.060;17.226;2023-03-23T00:24:40;55;45;30
44871;PMS7003;30602;51.060;17.226;2023-03-23T00:28:22;51;42;28
44871;PMS7003;30602;51.060;17.226;2023-03-23T00:32:06;46;40;28
44871;PMS7003;30602;51.060;17.226;2023-03-23T00:35:37;53;43;28
44871;PMS7003;30602;51.060;17.226;2023-03-23T00:39:02;49;41;28
44871;PMS7003;30602;51.060;17.226;2023-03-23T00:42:51;53;41;29
44871;PMS7003;30602;51.060;17.226;2023-03-23T00:46:38;55;44;29
44871;PMS7003;30602;51.060;17.226;2023-03-23T00:50:18;50;39;27
44871;PMS7003;30602;51.060;17.226;2023-03-23T00:53:46;53;42;29
44871;PMS7003;30602;51.060;17.226;2023-03-23T00:57:34;54;44;29
44871;PMS7003;30602;51.060;17.226;2023-03-23T01:01:56;55;46;28
44871;PMS7003;30602;51.060;17.226;2023-03-23T01:05:39;52;44;29
44871;PMS7003;30602;51.060;17.226;2023-03-23T01:09:20;54;43;28
44871;PMS7003;30602;51.060;17.226;2023-03-23T01:16:24;51;42;28
44871;PMS7003;30602;51.060;17.226;2023-03-23T01:20:22;54;44;29
44871;PMS7003;30602;51.060;17.226;2023-03-23T01:24:12;50;42;27
44871;PMS7003;30602;51.060;17.226;2023-03-23T01:27:38;43;38;28
44871;PMS7003;30602;51.060;17.226;2023-03-23T01:31:08;54;43;27
44871;PMS7003;30602;51.060;17.226;2023-03-23T01:34:54;41;38;26
44871;PMS7003;30602;51.060;17.226;2023-03-23T01:38:33;51;43;27
44871;PMS7003;30602;51.060;17.226;2023-03-23T01:42:10;46;40;26
44871;PMS7003;30602;51.060;17.226;2023-03-23T01:45:46;50;42;27
44871;PMS7003;30602;51.060;17.226;2023-03-23T01:49:38;50;40;28
44871;PMS7003;30602;51.060;17.226;2023-03-23T01:53:52;47;39;26
44871;PMS7003;30602;51.060;17.226;2023-03-23T01:58:00;38;36;25
44871;PMS7003;30602;51.060;17.226;2023-03-23T02:01:38;39;36;23
44871;PMS7003;30602;51.060;17.226;2023-03-23T02:05:21;39;36;23
44871;PMS7003;30602;51.060;17.226;2023-03-23T02:09:26;42;33;21
44871;PMS7003;30602;51.060;17.226;2023-03-23T02:13:46;41;36;24
44871;PMS7003;30602;51.060;17.226;2023-03-23T02:41:29;33;31;21
44871;PMS7003;30602;51.060;17.226;2023-03-23T02:45:20;34;30;20
44871;PMS7003;30602;51.060;17.226;2023-03-23T02:49:01;31;28;18
44871;PMS7003;30602;51.060;17.226;2023-03-23T02:52:45;30;29;22
44871;PMS7003;30602;51.060;17.226;2023-03-23T02:56:33;36;28;20
44871;PMS7003;30602;51.060;17.226;2023-03-23T03:00:21;29;26;18
44871;PMS7003;30602;51.060;17.226;2023-03-23T03:03:42;29;26;18
44871;PMS7003;30602;51.060;17.226;2023-03-23T03:11:22;29;25;19
44871;PMS7003;30602;51.060;17.226;2023-03-23T03:14:56;28;27;20
44871;PMS7003;30602;51.060;17.226;2023-03-23T03:18:24;32;28;18
44871;PMS7003;30602;51.060;17.226;2023-03-23T03:22:11;25;24;16
44871;PMS7003;30602;51.060;17.226;2023-03-23T03:26:12;29;26;18
44871;PMS7003;30602;51.060;17.226;2023-03-23T03:30:14;24;21;16
44871;PMS7003;30602;51.060;17.226;2023-03-23T03:34:00;23;20;15
44871;PMS7003;30602;51.060;17.226;2023-03-23T03:38:11;26;25;17
44871;PMS7003;30602;51.060;17.226;2023-03-23T03:42:15;25;24;16
44871;PMS7003;30602;51.060;17.226;2023-03-23T03:46:20;24;24;16
44871;PMS7003;30602;51.060;17.226;2023-03-23T03:49:58;25;21;16
44871;PMS7003;30602;51.060;17.226;2023-03-23T03:57:40;24;20;15
44871;PMS7003;30602;51.060;17.226;2023-03-23T04:01:02;23;21;17
44871;PMS7003;30602;51.060;17.226;2023-03-23T04:04:48;24;23;16
44871;PMS7003;30602;51.060;17.226;2023-03-23T04:08:33;22;20;16
44871;PMS7003;30602;51.060;17.226;2023-03-23T04:12:57;23;21;15
44871;PMS7003;30602;51.060;17.226;2023-03-23T04:16:31;25;22;15
44871;PMS7003;30602;51.060;17.226;2023-03-23T04:19:55;27;23;17
44871;PMS7003;30602;51.060;17.226;2023-03-23T04:23:19;23;22;16
44871;PMS7003;30602;51.060;17.226;2023-03-23T04:26:53;21;20;15
44871;PMS7003;30602;51.060;17.226;2023-03-23T04:31:00;22;21;15
44871;PMS7003;30602;51.060;17.226;2023-03-23T04:34:58;21;18;14
44871;PMS7003;30602;51.060;17.226;2023-03-23T04:38:49;24;18;13
44871;PMS7003;30602;51.060;17.226;2023-03-23T04:42:32;23;18;14
44871;PMS7003;30602;51.060;17.226;2023-03-23T04:46:16;19;17;14
44871;PMS7003;30602;51.060;17.226;2023-03-23T04:50:10;24;22;15
44871;PMS7003;30602;51.060;17.226;2023-03-23T04:54:10;19;19;14
44871;PMS7003;30602;51.060;17.226;2023-03-23T04:57:31;23;19;15
44871;PMS7003;30602;51.060;17.226;2023-03-23T05:01:17;19;19;14
44871;PMS7003;30602;51.060;17.226;2023-03-23T05:04:46;26;22;16
44871;PMS7003;30602;51.060;17.226;2023-03-23T05:08:27;27;24;18
44871;PMS7003;30602;51.060;17.226;2023-03-23T05:12:15;28;25;17
44871;PMS7003;30602;51.060;17.226;2023-03-23T05:15:34;23;19;15
44871;PMS7003;30602;51.060;17.226;2023-03-23T05:23:12;35;32;20
44871;PMS7003;30602;51.060;17.226;2023-03-23T05:27:10;35;34;22
44871;PMS7003;30602;51.060;17.226;2023-03-23T05:30:43;19;19;15
44871;PMS7003;30602;51.060;17.226;2023-03-23T05:34:36;27;25;18
44871;PMS7003;30602;51.060;17.226;2023-03-23T05:38:22;33;29;19
44871;PMS7003;30602;51.060;17.226;2023-03-23T05:42:28;35;28;19
44871;PMS7003;30602;51.060;17.226;2023-03-23T05:46:31;19;18;14
44871;PMS7003;30602;51.060;17.226;2023-03-23T05:50:16;27;21;15
44871;PMS7003;30602;51.060;17.226;2023-03-23T05:54:01;19;15;12
44871;PMS7003;30602;51.060;17.226;2023-03-23T05:57:20;15;14;11
44871;PMS7003;30602;51.060;17.226;2023-03-23T06:00:39;16;15;12
44871;PMS7003;30602;51.060;17.226;2023-03-23T06:04:02;18;14;11
44871;PMS7003;30602;51.060;17.226;2023-03-23T06:07:56;15;12;10
44871;PMS7003;30602;51.060;17.226;2023-03-23T06:12:09;15;12;10
44871;PMS7003;30602;51.060;17.226;2023-03-23T06:15:31;17;11;9
44871;PMS7003;30602;51.060;17.226;2023-03-23T06:19:05;13;11;9
44871;PMS7003;30602;51.060;17.226;2023-03-23T06:22:46;12;11;8
44871;PMS7003;30602;51.060;17.226;2023-03-23T06:26:34;17;11;9
44871;PMS7003;30602;51.060;17.226;2023-03-23T06:30:28;15;13;10
44871;PMS7003;30602;51.060;17.226;2023-03-23T06:34:13;13;11;10
44871;PMS7003;30602;51.060;17.226;2023-03-23T06:37:59;10;10;8
44871;PMS7003;30602;51.060;17.226;2023-03-23T06:41:34;12;10;9
44871;PMS7003;30602;51.060;17.226;2023-03-23T06:44:57;14;13;9
44871;PMS7003;30602;51.060;17.226;2023-03-23T06:48:43;11;10;9
44871;PMS7003;30602;51.060;17.226;2023-03-23T06:52:10;11;10;7
44871;PMS7003;30602;51.060;17.226;2023-03-23T06:55:50;9;9;7
44871;PMS7003;30602;51.060;17.226;2023-03-23T06:59:11;10;8;7
44871;PMS7003;30602;51.060;17.226;2023-03-23T07:03:14;9;8;6
44871;PMS7003;30602;51.060;17.226;2023-03-23T07:06:44;12;9;7
44871;PMS7003;30602;51.060;17.226;2023-03-23T07:10:10;9;9;7
44871;PMS7003;30602;51.060;17.226;2023-03-23T07:14:12;7;6;5
44871;PMS7003;30602;51.060;17.226;2023-03-23T07:18:00;11;9;6
44871;PMS7003;30602;51.060;17.226;2023-03-23T07:21:27;12;12;8
44871;PMS7003;30602;51.060;17.226;2023-03-23T07:24:52;11;11;8
44871;PMS7003;30602;51.060;17.226;2023-03-23T07:28:13;10;9;7
44871;PMS7003;30602;51.060;17.226;2023-03-23T07:32:37;12;11;8
44871;PMS7003;30602;51.060;17.226;2023-03-23T07:36:14;12;10;9
44871;PMS7003;30602;51.060;17.226;2023-03-23T07:39:57;13;11;8
44871;PMS7003;30602;51.060;17.226;2023-03-23T07:43:46;14;11;9
44871;PMS7003;30602;51.060;17.226;2023-03-23T07:47:41;14;12;9
44871;PMS7003;30602;51.060;17.226;2023-03-23T07:51:46;11;10;9
44871;PMS7003;30602;51.060;17.226;2023-03-23T07:55:28;13;11;9
44871;PMS7003;30602;51.060;17.226;2023-03-23T07:59:54;12;12;10
44871;PMS7003;30602;51.060;17.226;2023-03-23T08:03:34;14;13;10
44871;PMS7003;30602;51.060;17.226;2023-03-23T08:06:56;12;11;10
44871;PMS7003;30602;51.060;17.226;2023-03-23T08:10:36;13;12;10
44871;PMS7003;30602;51.060;17.226;2023-03-23T08:14:19;14;12;9
44871;PMS7003;30602;51.060;17.226;2023-03-23T08:18:31;11;11;8
44871;PMS7003;30602;51.060;17.226;2023-03-23T08:22:26;11;10;7
44871;PMS7003;30602;51.060;17.226;2023-03-23T08:30:19;11;10;8
44871;PMS7003;30602;51.060;17.226;2023-03-23T08:34:08;14;12;9
44871;PMS7003;30602;51.060;17.226;2023-03-23T08:37:56;12;11;8
44871;PMS7003;30602;51.060;17.226;2023-03-23T08:41:19;9;9;7
44871;PMS7003;30602;51.060;17.226;2023-03-23T08:45:17;15;13;9
44871;PMS7003;30602;51.060;17.226;2023-03-23T08:49:01;7;7;7
44871;PMS7003;30602;51.060;17.226;2023-03-23T08:52:25;13;11;9
44871;PMS7003;30602;51.060;17.226;2023-03-23T08:59:59;10;9;7
44871;PMS7003;30602;51.060;17.226;2023-03-23T09:03:54;10;8;6
44871;PMS7003;30602;51.060;17.226;2023-03-23T09:07:31;7;6;4
44871;PMS7003;30602;51.060;17.226;2023-03-23T09:10:55;8;7;6
44871;PMS7003;30602;51.060;17.226;2023-03-23T09:15:06;6;6;6
44871;PMS7003;30602;51.060;17.226;2023-03-23T09:18:46;7;7;6
44871;PMS7003;30602;51.060;17.226;2023-03-23T09:22:08;10;7;6
44871;PMS7003;30602;51.060;17.226;2023-03-23T09:26:05;6;5;4
44871;PMS7003;30602;51.060;17.226;2023-03-23T09:29:59;5;4;4
44871;PMS7003;30602;51.060;17.226;2023-03-23T09:34:00;7;5;5
44871;PMS7003;30602;51.060;17.226;2023-03-23T09:37:28;7;7;5
44871;PMS7003;30602;51.060;17.226;2023-03-23T09:41:54;4;4;3
44871;PMS7003;30602;51.060;17.226;2023-03-23T09:45:25;9;8;6
44871;PMS7003;30602;51.060;17.226;2023-03-23T10:01:02;5;3;2
44871;PMS7003;30602;51.060;17.226;2023-03-23T10:08:56;4;2;2
44871;PMS7003;30602;51.060;17.226;2023-03-23T10:20:57;4;2;2
44871;PMS7003;30602;51.060;17.226;2023-03-23T10:24:26;2;2;2
44871;PMS7003;30602;51.060;17.226;2023-03-23T10:28:43;4;3;2
44871;PMS7003;30602;51.060;17.226;2023-03-23T10:32:12;3;3;2
44871;PMS7003;30602;51.060;17.226;2023-03-23T10:39:56;3;3;2
44871;PMS7003;30602;51.060;17.226;2023-03-23T10:43:19;3;2;2
44871;PMS7003;30602;51.060;17.226;2023-03-23T10:47:07;4;4;3
44871;PMS7003;30602;51.060;17.226;2023-03-23T10:51:03;4;4;3
44871;PMS7003;30602;51.060;17.226;2023-03-23T10:55:13;4;3;3
44871;PMS7003;30602;51.060;17.226;2023-03-23T10:59:28;5;3;2
44871;PMS7003;30602;51.060;17.226;2023-03-23T11:03:24;2;2;2
44871;PMS7003;30602;51.060;17.226;2023-03-23T11:07:59;2;1;1
44871;PMS7003;30602;51.060;17.226;2023-03-23T11:11:43;1;1;1
44871;PMS7003;30602;51.060;17.226;2023-03-23T11:15:44;2;2;2
44871;PMS7003;30602;51.060;17.226;2023-03-23T11:19:31;1;1;1
44871;PMS7003;30602;51.060;17.226;2023-03-23T11:27:05;0;0;0
44871;PMS7003;30602;51.060;17.226;2023-03-23T11:31:05;1;1;1
44871;PMS7003;30602;51.060;17.226;2023-03-23T11:38:25;1;1;1
44871;PMS7003;30602;51.060;17.226;2023-03-23T11:42:13;1;1;1
44871;PMS7003;30602;51.060;17.226;2023-03-23T11:46:09;3;2;2
44871;PMS7003;30602;51.060;17.226;2023-03-23T11:50:31;2;2;1
44871;PMS7003;30602;51.060;17.226;2023-03-23T11:57:43;3;2;2
44871;PMS7003;30602;51.060;17.226;2023-03-23T12:23:48;6;5;5
44871;PMS7003;30602;51.060;17.226;2023-03-23T12:35:34;17;9;6
44871;PMS7003;30602;51.060;17.226;2023-03-23T12:47:03;5;2;2
44871;PMS7003;30602;51.060;17.226;2023-03-23T12:54:30;1;1;1
44871;PMS7003;30602;51.060;17.226;2023-03-23T12:58:11;2;2;1
44871;PMS7003;30602;51.060;17.226;2023-03-23T13:01:52;5;4;2
44871;PMS7003;30602;51.060;17.226;2023-03-23T13:10:54;6;4;2
44871;PMS7003;30602;51.060;17.226;2023-03-23T13:23:11;4;3;2
44871;PMS7003;30602;51.060;17.226;2023-03-23T13:27:00;2;2;2
44871;PMS7003;30602;51.060;17.226;2023-03-23T13:30:21;6;3;2
44871;PMS7003;30602;51.060;17.226;2023-03-23T13:33:46;4;2;2
44871;PMS7003;30602;51.060;17.226;2023-03-23T13:37:25;16;8;6
44871;PMS7003;30602;51.060;17.226;2023-03-23T13:41:59;15;10;6
44871;PMS7003;30602;51.060;17.226;2023-03-23T14:04:15;9;6;5
44871;PMS7003;30602;51.060;17.226;2023-03-23T14:07:58;13;10;7
44871;PMS7003;30602;51.060;17.226;2023-03-23T14:15:22;9;8;5
44871;PMS7003;30602;51.060;17.226;2023-03-23T14:19:00;9;7;4
44871;PMS7003;30602;51.060;17.226;2023-03-23T14:22:55;11;9;6
44871;PMS7003;30602;51.060;17.226;2023-03-23T14:30:36;12;9;6
44871;PMS7003;30602;51.060;17.226;2023-03-23T14:34:44;5;4;3
44871;PMS7003;30602;51.060;17.226;2023-03-23T14:38:33;11;9;7
44871;PMS7003;30602;51.060;17.226;2023-03-23T14:45:52;6;6;4
44871;PMS7003;30602;51.060;17.226;2023-03-23T14:49:39;7;5;4
44871;PMS7003;30602;51.060;17.226;2023-03-23T14:53:21;6;4;3
44871;PMS7003;30602;51.060;17.226;2023-03-23T14:57:49;7;6;4
44871;PMS7003;30602;51.060;17.226;2023-03-23T15:05:27;8;7;5
44871;PMS7003;30602;51.060;17.226;2023-03-23T15:09:40;4;4;4
44871;PMS7003;30602;51.060;17.226;2023-03-23T15:13:19;11;9;8
44871;PMS7003;30602;51.060;17.226;2023-03-23T15:17:35;15;12;12
44871;PMS7003;30602;51.060;17.226;2023-03-23T15:21:26;6;5;4
44871;PMS7003;30602;51.060;17.226;2023-03-23T15:25:29;11;11;8
44871;PMS7003;30602;51.060;17.226;2023-03-23T15:36:31;18;17;14
44871;PMS7003;30602;51.060;17.226;2023-03-23T15:39:58;30;27;19
44871;PMS7003;30602;51.060;17.226;2023-03-23T15:43:28;11;9;7
44871;PMS7003;30602;51.060;17.226;2023-03-23T15:47:01;21;15;11
44871;PMS7003;30602;51.060;17.226;2023-03-23T15:50:50;21;14;10
44871;PMS7003;30602;51.060;17.226;2023-03-23T15:54:29;11;9;7
44871;PMS7003;30602;51.060;17.226;2023-03-23T15:58:31;10;9;7
44871;PMS7003;30602;51.060;17.226;2023-03-23T16:01:51;12;12;9
44871;PMS7003;30602;51.060;17.226;2023-03-23T16:05:17;7;6;5
44871;PMS7003;30602;51.060;17.226;2023-03-23T16:08:50;9;7;6
44871;PMS7003;30602;51.060;17.226;2023-03-23T16:13:10;10;9;7
44871;PMS7003;30602;51.060;17.226;2023-03-23T16:17:30;17;13;10
44871;PMS7003;30602;51.060;17.226;2023-03-23T16:21:24;6;6;6
44871;PMS7003;30602;51.060;17.226;2023-03-23T16:24:55;8;6;5
44871;PMS7003;30602;51.060;17.226;2023-03-23T16:28:44;8;7;5
44871;PMS7003;30602;51.060;17.226;2023-03-23T16:33:06;9;8;7
44871;PMS7003;30602;51.060;17.226;2023-03-23T16:36:52;11;10;8
44871;PMS7003;30602;51.060;17.226;2023-03-23T16:40:15;18;14;11
44871;PMS7003;30602;51.060;17.226;2023-03-23T16:44:46;18;17;12
44871;PMS7003;30602;51.060;17.226;2023-03-23T16:48:20;14;12;9
44871;PMS7003;30602;51.060;17.226;2023-03-23T16:55:56;12;11;9
44871;PMS7003;30602;51.060;17.226;2023-03-23T17:00:04;10;8;7
44871;PMS7003;30602;51.060;17.226;2023-03-23T17:03:59;10;8;7
44871;PMS7003;30602;51.060;17.226;2023-03-23T17:08:05;11;9;7
44871;PMS7003;30602;51.060;17.226;2023-03-23T17:11:49;12;10;8
44871;PMS7003;30602;51.060;17.226;2023-03-23T17:15:41;20;18;12
44871;PMS7003;30602;51.060;17.226;2023-03-23T17:19:05;21;17;14
44871;PMS7003;30602;51.060;17.226;2023-03-23T17:22:51;23;18;14
44871;PMS7003;30602;51.060;17.226;2023-03-23T17:26:45;24;22;16
44871;PMS7003;30602;51.060;17.226;2023-03-23T17:30:27;28;25;18
44871;PMS7003;30602;51.060;17.226;2023-03-23T17:34:16;60;46;26
44871;PMS7003;30602;51.060;17.226;2023-03-23T17:37:39;33;30;19
44871;PMS7003;30602;51.060;17.226;2023-03-23T17:41:29;30;27;17
44871;PMS7003;30602;51.060;17.226;2023-03-23T17:44:55;32;25;17
44871;PMS7003;30602;51.060;17.226;2023-03-23T17:48:53;22;17;13
44871;PMS7003;30602;51.060;17.226;2023-03-23T17:52:14;21;19;13
44871;PMS7003;30602;51.060;17.226;2023-03-23T17:55:34;28;19;13
44871;PMS7003;30602;51.060;17.226;2023-03-23T17:59:32;28;20;13
44871;PMS7003;30602;51.060;17.226;2023-03-23T18:03:11;23;19;14
44871;PMS7003;30602;51.060;17.226;2023-03-23T18:06:35;21;18;13
44871;PMS7003;30602;51.060;17.226;2023-03-23T18:10:31;20;20;15
44871;PMS7003;30602;51.060;17.226;2023-03-23T18:14:28;23;21;15
44871;PMS7003;30602;51.060;17.226;2023-03-23T18:18:12;18;17;13
44871;PMS7003;30602;51.060;17.226;2023-03-23T18:21:37;21;16;13
44871;PMS7003;30602;51.060;17.226;2023-03-23T18:25:22;22;20;15
44871;PMS7003;30602;51.060;17.226;2023-03-23T18:29:21;24;21;17
44871;PMS7003;30602;51.060;17.226;2023-03-23T18:32:52;53;41;27
44871;PMS7003;30602;51.060;17.226;2023-03-23T18:36:40;79;60;33
44871;PMS7003;30602;51.060;17.226;2023-03-23T18:40:29;97;79;37
44871;PMS7003;30602;51.060;17.226;2023-03-23T18:43:58;78;57;31
44871;PMS7003;30602;51.060;17.226;2023-03-23T18:47:39;34;32;21
44871;PMS7003;30602;51.060;17.226;2023-03-23T18:51:34;52;40;24
44871;PMS7003;30602;51.060;17.226;2023-03-23T18:55:26;62;46;27
44871;PMS7003;30602;51.060;17.226;2023-03-23T18:59:00;50;39;25
44871;PMS7003;30602;51.060;17.226;2023-03-23T19:02:53;28;22;16
44871;PMS7003;30602;51.060;17.226;2023-03-23T19:06:21;22;18;12
44871;PMS7003;30602;51.060;17.226;2023-03-23T19:14:34;22;18;14
44871;PMS7003;30602;51.060;17.226;2023-03-23T19:18:47;30;26;18
44871;PMS7003;30602;51.060;17.226;2023-03-23T19:22:48;44;34;23
44871;PMS7003;30602;51.060;17.226;2023-03-23T19:26:40;41;35;22
44871;PMS7003;30602;51.060;17.226;2023-03-23T19:30:33;22;20;14
44871;PMS7003;30602;51.060;17.226;2023-03-23T19:33:54;16;14;10
44871;PMS7003;30602;51.060;17.226;2023-03-23T19:37:39;22;18;13
44871;PMS7003;30602;51.060;17.226;2023-03-23T19:41:23;17;17;14
44871;PMS7003;30602;51.060;17.226;2023-03-23T19:44:56;18;15;11
44871;PMS7003;30602;51.060;17.226;2023-03-23T19:48:24;21;16;12
44871;PMS7003;30602;51.060;17.226;2023-03-23T19:51:45;16;15;12
44871;PMS7003;30602;51.060;17.226;2023-03-23T20:00:47;25;18;14
44871;PMS7003;30602;51.060;17.226;2023-03-23T20:04:29;24;20;17
44871;PMS7003;30602;51.060;17.226;2023-03-23T20:07:48;15;12;10
44871;PMS7003;30602;51.060;17.226;2023-03-23T20:11:12;18;16;11
44871;PMS7003;30602;51.060;17.226;2023-03-23T20:15:00;17;13;11
44871;PMS7003;30602;51.060;17.226;2023-03-23T20:18:45;13;13;11
44871;PMS7003;30602;51.060;17.226;2023-03-23T20:22:05;17;16;12
44871;PMS7003;30602;51.060;17.226;2023-03-23T20:25:27;22;20;14
44871;PMS7003;30602;51.060;17.226;2023-03-23T20:28:59;19;16;13
44871;PMS7003;30602;51.060;17.226;2023-03-23T20:32:24;24;19;14
44871;PMS7003;30602;51.060;17.226;2023-03-23T20:36:04;21;17;14
44871;PMS7003;30602;51.060;17.226;2023-03-23T20:40:21;21;18;13
44871;PMS7003;30602;51.060;17.226;2023-03-23T20:44:15;24;20;14
44871;PMS7003;30602;51.060;17.226;2023-03-23T20:48:07;28;23;15
44871;PMS7003;30602;51.060;17.226;2023-03-23T20:51:56;43;34;21
44871;PMS7003;30602;51.060;17.226;2023-03-23T20:55:58;30;25;16
44871;PMS7003;30602;51.060;17.226;2023-03-23T20:59:40;37;30;16
44871;PMS7003;30602;51.060;17.226;2023-03-23T21:04:00;27;19;14
44871;PMS7003;30602;51.060;17.226;2023-03-23T21:08:05;33;26;17
44871;PMS7003;30602;51.060;17.226;2023-03-23T21:11:30;31;26;19
44871;PMS7003;30602;51.060;17.226;2023-03-23T21:15:36;22;19;15
44871;PMS7003;30602;51.060;17.226;2023-03-23T21:19:23;19;18;13
44871;PMS7003;30602;51.060;17.226;2023-03-23T21:23:04;20;15;11
44871;PMS7003;30602;51.060;17.226;2023-03-23T21:26:27;20;17;13
44871;PMS7003;30602;51.060;17.226;2023-03-23T21:29:46;27;23;16
44871;PMS7003;30602;51.060;17.226;2023-03-23T21:33:30;26;22;15
44871;PMS7003;30602;51.060;17.226;2023-03-23T21:36:56;21;20;15
44871;PMS7003;30602;51.060;17.226;2023-03-23T21:40:31;19;19;14
44871;PMS7003;30602;51.060;17.226;2023-03-23T21:44:47;26;20;13
44871;PMS7003;30602;51.060;17.226;2023-03-23T21:48:59;28;24;16
44871;PMS7003;30602;51.060;17.226;2023-03-23T21:52:53;30;23;15
44871;PMS7003;30602;51.060;17.226;2023-03-23T21:56:15;29;23;17
44871;PMS7003;30602;51.060;17.226;2023-03-23T22:00:05;26;22;16
44871;PMS7003;30602;51.060;17.226;2023-03-23T22:04:05;44;35;21
44871;PMS7003;30602;51.060;17.226;2023-03-23T22:07:38;53;39;24
44871;PMS7003;30602;51.060;17.226;2023-03-23T22:11:12;50;40;24
44871;PMS7003;30602;51.060;17.226;2023-03-23T22:14:44;29;25;16
44871;PMS7003;30602;51.060;17.226;2023-03-23T22:18:39;20;19;14
44871;PMS7003;30602;51.060;17.226;2023-03-23T22:22:01;19;16;12
44871;PMS7003;30602;51.060;17.226;2023-03-23T22:25:56;20;16;13
44871;PMS7003;30602;51.060;17.226;2023-03-23T22:30:14;18;16;11
44871;PMS7003;30602;51.060;17.226;2023-03-23T22:34:15;18;17;13
44871;PMS7003;30602;51.060;17.226;2023-03-23T22:38:23;18;14;11
44871;PMS7003;30602;51.060;17.226;2023-03-23T22:42:14;16;15;12
44871;PMS7003;30602;51.060;17.226;2023-03-23T22:46:09;17;13;11
44871;PMS7003;30602;51.060;17.226;2023-03-23T22:49:50;16;14;10
44871;PMS7003;30602;51.060;17.226;2023-03-23T22:53:32;14;14;12
44871;PMS7003;30602;51.060;17.226;2023-03-23T22:57:15;12;12;9
44871;PMS7003;30602;51.060;17.226;2023-03-23T23:00:38;13;13;10
44871;PMS7003;30602;51.060;17.226;2023-03-23T23:04:26;13;12;10
44871;PMS7003;30602;51.060;17.226;2023-03-23T23:08:17;12;12;9
44871;PMS7003;30602;51.060;17.226;2023-03-23T23:12:03;11;11;8
44871;PMS7003;30602;51.060;17.226;2023-03-23T23:16:00;14;12;8
44871;PMS7003;30602;51.060;17.226;2023-03-23T23:19:43;11;10;7
44871;PMS7003;30602;51.060;17.226;2023-03-23T23:23:25;16;11;8
44871;PMS7003;30602;51.060;17.226;2023-03-23T23:27:04;11;9;8
44871;PMS7003;30602;51.060;17.226;2023-03-23T23:30:58;13;11;9
44871;PMS7003;30602;51.060;17.226;2023-03-23T23:34:34;13;9;8
44871;PMS7003;30602;51.060;17.226;2023-03-23T23:37:58;13;10;9
44871;PMS7003;30602;51.060;17.226;2023-03-23T23:41:19;14;11;9
44871;PMS7003;30602;51.060;17.226;2023-03-23T23:45:00;13;11;9
44871;PMS7003;30602;51.060;17.226;2023-03-23T23:48:48;11;9;7
44871;PMS7003;30602;51.060;17.226;2023-03-23T23:52:26;8;7;6
44871;PMS7003;30602;51.060;17.226;2023-03-23T23:56:20;12;12;8
44871;PMS7003;30602;51.060;17.226;2023-03-23T23:59:54;12;10;8
